createdAt,value
2019-04-29T00:02:22.669Z,74.09
2019-04-29T00:04:48.540Z,75.01
2019-04-29T00:07:14.401Z,75.74
2019-04-29T00:09:40.266Z,75.29
2019-04-29T00:12:06.242Z,75.21
2019-04-29T00:14:33.402Z,74.67
2019-04-29T00:17:16.089Z,74.78
2019-04-29T00:20:00.635Z,74.02
2019-04-29T00:22:26.496Z,74.01
2019-04-29T00:24:52.365Z,73.76
2019-04-29T00:27:18.225Z,74.77
2019-04-29T00:29:44.074Z,74.42
2019-04-29T00:32:10.325Z,74.15
2019-04-29T00:34:36.202Z,73.89
2019-04-29T00:37:09.895Z,74.00
2019-04-29T00:39:43.917Z,74.25
2019-04-29T00:42:14.666Z,74.10
2019-04-29T00:44:40.517Z,74.07
2019-04-29T00:47:06.385Z,73.95
2019-04-29T00:49:32.271Z,74.26
2019-04-29T00:51:58.121Z,73.79
2019-04-29T00:54:37.817Z,74.31
2019-04-29T00:57:03.756Z,74.37
2019-04-29T00:59:29.608Z,74.50
2019-04-29T01:01:56.397Z,74.27
2019-04-29T01:04:22.248Z,74.22
2019-04-29T01:06:48.096Z,74.46
2019-04-29T01:09:14.052Z,74.83
2019-04-29T01:11:40.112Z,74.05
2019-04-29T01:14:06.007Z,74.45
2019-04-29T01:16:31.860Z,74.77
2019-04-29T01:18:57.717Z,74.63
2019-04-29T01:21:23.575Z,74.69
2019-04-29T01:23:49.433Z,74.45
2019-04-29T01:26:29.085Z,74.76
2019-04-29T01:28:59.623Z,74.55
2019-04-29T01:31:27.394Z,75.62
2019-04-29T01:33:55.159Z,74.74
2019-04-29T01:36:22.916Z,74.71
2019-04-29T01:38:50.174Z,74.73
2019-04-29T01:41:17.934Z,74.91
2019-04-29T01:44:00.209Z,74.29
2019-04-29T01:46:27.412Z,74.51
2019-04-29T01:48:54.655Z,74.96
2019-04-29T01:51:20.520Z,74.45
2019-04-29T01:53:46.401Z,74.15
2019-04-29T01:56:12.254Z,74.39
2019-04-29T01:58:38.110Z,74.33
2019-04-29T02:01:04.066Z,74.68
2019-04-29T02:03:29.975Z,74.10
2019-04-29T02:05:55.825Z,74.49
2019-04-29T02:08:21.681Z,74.08
2019-04-29T02:10:47.540Z,74.57
2019-04-29T02:13:14.259Z,74.50
2019-04-29T02:15:40.112Z,74.70
2019-04-29T02:18:05.965Z,74.41
2019-04-29T02:20:31.839Z,74.06
2019-04-29T02:23:02.573Z,74.32
2019-04-29T02:25:30.335Z,74.42
2019-04-29T02:27:56.371Z,74.17
2019-04-29T02:30:29.071Z,74.65
2019-04-29T02:32:54.919Z,75.01
2019-04-29T02:35:20.788Z,75.24
2019-04-29T02:37:46.741Z,74.37
2019-04-29T02:40:17.561Z,74.18
2019-04-29T02:42:45.333Z,73.61
2019-04-29T02:45:13.793Z,74.19
2019-04-29T02:47:39.635Z,74.01
2019-04-29T02:50:06.405Z,74.34
2019-04-29T02:52:32.255Z,74.20
2019-04-29T02:55:00.014Z,74.46
2019-04-29T02:57:30.283Z,75.08
2019-04-29T03:00:01.107Z,74.51
2019-04-29T03:02:29.071Z,74.45
2019-04-29T03:05:05.515Z,74.08
2019-04-29T03:07:31.551Z,74.39
2019-04-29T03:09:57.437Z,74.27
2019-04-29T03:12:23.307Z,74.79
2019-04-29T03:14:49.228Z,74.56
2019-04-29T03:17:18.618Z,74.21
2019-04-29T03:20:01.989Z,74.81
2019-04-29T03:22:28.080Z,74.65
2019-04-29T03:24:53.926Z,74.66
2019-04-29T03:27:19.793Z,74.37
2019-04-29T03:29:45.648Z,74.67
2019-04-29T03:32:11.498Z,74.65
2019-04-29T03:34:37.370Z,74.76
2019-04-29T03:37:03.216Z,74.07
2019-04-29T03:39:29.066Z,74.20
2019-04-29T03:41:54.963Z,74.32
2019-04-29T03:44:20.808Z,74.85
2019-04-29T03:46:46.670Z,74.19
2019-04-29T03:49:12.539Z,74.83
2019-04-29T03:51:38.393Z,74.60
2019-04-29T03:54:04.243Z,74.66
2019-04-29T03:56:30.104Z,74.39
2019-04-29T03:58:55.963Z,74.89
2019-04-29T04:01:29.525Z,75.32
2019-04-29T04:03:57.329Z,74.80
2019-04-29T04:06:30.671Z,75.78
2019-04-29T04:09:06.247Z,76.00
2019-04-29T04:11:26.224Z,75.64
2019-04-29T04:13:52.115Z,75.74
2019-04-29T04:16:28.521Z,75.53
2019-04-29T04:18:56.256Z,74.87
2019-04-29T04:21:22.106Z,75.06
2019-04-29T04:23:47.962Z,74.86
2019-04-29T04:26:13.813Z,74.28
2019-04-29T04:28:39.672Z,75.04
2019-04-29T04:31:07.063Z,75.52
2019-04-29T04:33:33.158Z,75.70
2019-04-29T04:35:59.008Z,75.49
2019-04-29T04:38:24.882Z,75.48
2019-04-29T04:40:58.194Z,75.52
2019-04-29T04:43:24.050Z,75.47
2019-04-29T04:45:49.921Z,75.50
2019-04-29T04:48:15.808Z,75.10
2019-04-29T04:50:41.689Z,75.26
2019-04-29T04:53:07.928Z,75.67
2019-04-29T04:55:35.682Z,75.97
2019-04-29T04:58:01.541Z,75.62
2019-04-29T05:00:29.304Z,76.01
2019-04-29T05:02:55.227Z,76.36
2019-04-29T05:05:21.030Z,76.58
2019-04-29T05:07:46.914Z,76.26
2019-04-29T05:10:12.769Z,76.41
2019-04-29T05:12:38.624Z,75.67
2019-04-29T05:15:05.006Z,75.47
2019-04-29T05:17:30.864Z,76.22
2019-04-29T05:19:56.729Z,76.49
2019-04-29T05:22:22.610Z,75.88
2019-04-29T05:24:48.485Z,76.89
2019-04-29T05:27:14.448Z,75.86
2019-04-29T05:29:40.309Z,77.09
2019-04-29T05:32:06.218Z,76.84
2019-04-29T05:34:33.965Z,77.38
2019-04-29T05:37:01.717Z,77.89
2019-04-29T05:39:44.006Z,77.17
2019-04-29T05:42:16.078Z,76.37
2019-04-29T05:44:42.081Z,75.27
2019-04-29T05:47:12.716Z,73.52
2019-04-29T05:49:56.939Z,72.89
2019-04-29T05:52:24.699Z,72.73
2019-04-29T05:54:50.558Z,72.77
2019-04-29T05:57:20.324Z,74.87
2019-04-29T05:59:47.868Z,73.68
2019-04-29T06:02:12.165Z,73.01
2019-04-29T06:04:38.105Z,74.35
2019-04-29T06:07:04.137Z,72.83
2019-04-29T06:09:30.083Z,72.23
2019-04-29T06:11:55.939Z,71.74
2019-04-29T06:14:22.268Z,71.83
2019-04-29T06:16:48.353Z,71.84
2019-04-29T06:19:14.288Z,71.48
2019-04-29T06:21:40.152Z,71.14
2019-04-29T06:24:06.415Z,71.67
2019-04-29T06:26:33.794Z,71.37
2019-04-29T06:28:59.595Z,71.48
2019-04-29T06:31:25.453Z,71.35
2019-04-29T06:33:51.315Z,72.11
2019-04-29T06:36:17.521Z,72.19
2019-04-29T06:38:43.368Z,71.17
2019-04-29T06:41:09.812Z,71.01
2019-04-29T06:43:36.832Z,70.91
2019-04-29T06:46:02.685Z,69.22
2019-04-29T06:48:28.556Z,68.12
2019-04-29T06:50:54.407Z,68.68
2019-04-29T06:53:21.281Z,69.22
2019-04-29T06:55:48.026Z,68.52
2019-04-29T06:58:13.876Z,68.67
2019-04-29T07:00:39.736Z,68.81
2019-04-29T07:03:05.595Z,69.26
2019-04-29T07:05:31.451Z,68.05
2019-04-29T07:07:57.304Z,67.58
2019-04-29T07:10:27.091Z,66.94
2019-04-29T07:12:50.946Z,66.87
2019-04-29T07:15:16.799Z,66.44
2019-04-29T07:17:43.058Z,65.10
2019-04-29T07:20:09.915Z,64.67
2019-04-29T07:25:09.271Z,64.42
2019-04-29T07:27:43.121Z,63.55
2019-04-29T07:30:06.605Z,62.81
2019-04-29T07:32:33.265Z,61.92
2019-04-29T07:34:59.130Z,61.05
2019-04-29T07:37:24.984Z,61.31
2019-04-29T07:39:50.900Z,60.85
2019-04-29T07:42:16.767Z,59.46
2019-04-29T07:44:44.620Z,59.31
2019-04-29T07:47:10.414Z,58.94
2019-04-29T07:49:36.285Z,58.17
2019-04-29T07:52:02.364Z,57.77
2019-04-29T07:54:28.267Z,57.69
2019-04-29T07:56:54.141Z,55.73
2019-04-29T07:59:19.997Z,54.43
2019-04-29T08:01:45.866Z,55.14
2019-04-29T08:04:11.737Z,54.62
2019-04-29T08:06:42.866Z,54.29
2019-04-29T08:09:08.002Z,53.98
2019-04-29T08:11:35.770Z,52.41
2019-04-29T08:14:02.131Z,52.33
2019-04-29T08:16:28.005Z,50.51
2019-04-29T08:18:54.948Z,55.79
2019-04-29T08:21:20.859Z,56.79
2019-04-29T08:23:46.712Z,55.54
2019-04-29T08:26:12.600Z,53.38
2019-04-29T08:28:38.486Z,51.83
2019-04-29T08:31:04.339Z,51.98
2019-04-29T08:33:30.276Z,50.76
2019-04-29T08:35:56.129Z,51.59
2019-04-29T08:38:22.008Z,54.06
2019-04-29T08:40:50.088Z,55.34
2019-04-29T08:43:32.664Z,55.33
2019-04-29T08:46:09.290Z,57.04
2019-04-29T08:48:35.150Z,57.29
2019-04-29T08:51:01.019Z,55.89
2019-04-29T08:53:26.881Z,56.75
2019-04-29T08:55:52.735Z,57.00
2019-04-29T08:58:18.600Z,58.01
2019-04-29T09:00:44.524Z,57.37
2019-04-29T09:03:10.391Z,55.51
2019-04-29T09:05:36.266Z,56.81
2019-04-29T09:08:02.121Z,57.69
2019-04-29T09:10:28.005Z,56.09
2019-04-29T09:12:53.885Z,55.26
2019-04-29T09:15:20.084Z,54.58
2019-04-29T09:17:45.918Z,54.09
2019-04-29T09:20:12.557Z,53.17
2019-04-29T09:22:43.102Z,52.16
2019-04-29T09:25:28.069Z,51.59
2019-04-29T09:28:04.853Z,51.07
2019-04-29T09:30:30.702Z,50.14
2019-04-29T09:32:56.648Z,50.99
2019-04-29T09:35:22.509Z,52.31
2019-04-29T09:37:48.375Z,54.19
2019-04-29T09:40:16.440Z,55.96
2019-04-29T09:43:14.789Z,55.71
2019-04-29T09:45:32.401Z,54.98
2019-04-29T09:47:58.270Z,55.72
2019-04-29T09:50:24.174Z,54.25
2019-04-29T09:52:50.021Z,52.03
2019-04-29T09:55:17.086Z,50.80
2019-04-29T09:57:42.954Z,51.06
2019-04-29T10:00:11.722Z,53.61
2019-04-29T10:02:39.515Z,53.79
2019-04-29T10:05:07.765Z,53.68
2019-04-29T10:07:33.614Z,54.68
2019-04-29T10:10:02.393Z,52.17
2019-04-29T10:12:27.593Z,51.77
2019-04-29T10:14:54.349Z,50.91
2019-04-29T10:17:22.358Z,49.33
2019-04-29T10:19:53.199Z,48.61
2019-04-29T10:22:19.085Z,50.60
2019-04-29T10:24:45.177Z,50.34
2019-04-29T10:27:11.792Z,50.08
2019-04-29T10:29:38.352Z,50.08
2019-04-29T10:32:06.909Z,50.35
2019-04-29T10:34:33.954Z,49.78
2019-04-29T10:36:59.821Z,49.84
2019-04-29T10:39:33.394Z,50.72
2019-04-29T10:42:01.492Z,48.55
2019-04-29T10:44:45.879Z,48.10
2019-04-29T10:47:30.234Z,49.67
2019-04-29T10:50:10.733Z,50.28
2019-04-29T10:52:38.667Z,50.01
2019-04-29T10:55:04.197Z,50.57
2019-04-29T10:57:30.368Z,47.98
2019-04-29T11:00:00.914Z,47.44
2019-04-29T11:02:30.431Z,45.70
2019-04-29T11:05:02.491Z,46.71
2019-04-29T11:07:31.837Z,49.32
2019-04-29T11:10:02.263Z,50.47
2019-04-29T11:12:28.222Z,50.31
2019-04-29T11:14:54.309Z,50.82
2019-04-29T11:17:22.171Z,50.29
2019-04-29T11:19:48.027Z,50.86
2019-04-29T11:22:15.798Z,48.19
2019-04-29T11:25:00.164Z,48.64
2019-04-29T11:27:30.746Z,48.73
2019-04-29T11:29:58.571Z,47.00
2019-04-29T11:32:29.211Z,47.33
2019-04-29T11:35:02.581Z,48.67
2019-04-29T11:37:28.634Z,49.87
2019-04-29T11:39:57.083Z,49.80
2019-04-29T11:42:22.553Z,48.48
2019-04-29T11:44:48.415Z,48.96
2019-04-29T11:47:14.309Z,48.67
2019-04-29T11:49:42.077Z,48.61
2019-04-29T11:52:10.013Z,47.90
2019-04-29T11:54:35.693Z,47.65
2019-04-29T11:57:02.050Z,46.07
2019-04-29T11:59:32.337Z,46.76
2019-04-29T12:02:00.361Z,47.71
2019-04-29T12:04:28.688Z,47.69
2019-04-29T12:06:57.933Z,48.74
2019-04-29T12:09:25.464Z,49.37
2019-04-29T12:11:51.829Z,47.86
2019-04-29T12:14:19.593Z,47.23
2019-04-29T12:16:47.411Z,45.65
2019-04-29T12:19:22.472Z,43.77
2019-04-29T12:21:48.620Z,43.66
2019-04-29T12:24:14.900Z,44.17
2019-04-29T12:26:44.227Z,45.48
2019-04-29T12:29:08.501Z,45.77
2019-04-29T12:31:36.262Z,46.25
2019-04-29T12:34:19.196Z,45.53
2019-04-29T12:36:56.271Z,43.89
2019-04-29T12:39:43.065Z,43.11
2019-04-29T12:42:13.141Z,43.48
2019-04-29T12:44:44.472Z,44.71
2019-04-29T12:47:10.562Z,46.85
2019-04-29T12:49:36.420Z,46.76
2019-04-29T12:52:02.402Z,46.41
2019-04-29T12:54:28.249Z,46.50
2019-04-29T12:56:54.119Z,46.35
2019-04-29T12:59:20.093Z,45.43
2019-04-29T13:01:54.117Z,43.28
2019-04-29T13:04:22.813Z,41.84
2019-04-29T13:06:59.666Z,41.64
2019-04-29T13:09:46.183Z,41.90
2019-04-29T13:12:19.383Z,41.04
2019-04-29T13:14:41.813Z,40.20
2019-04-29T13:17:14.892Z,40.16
2019-04-29T13:19:50.252Z,40.09
2019-04-29T13:22:15.594Z,40.18
2019-04-29T13:24:42.644Z,40.83
2019-04-29T13:27:15.914Z,41.08
2019-04-29T13:29:37.478Z,41.21
2019-04-29T13:32:03.405Z,40.76
2019-04-29T13:34:33.332Z,39.84
2019-04-29T13:37:07.479Z,40.26
2019-04-29T13:39:39.274Z,41.38
2019-04-29T13:41:57.656Z,41.73
2019-04-29T13:44:22.638Z,41.30
2019-04-29T13:46:55.964Z,41.34
2019-04-29T13:49:26.595Z,41.60
2019-04-29T13:51:57.236Z,42.56
2019-04-29T13:54:23.103Z,42.43
2019-04-29T13:56:55.858Z,42.93
2019-04-29T13:59:27.225Z,41.95
2019-04-29T14:02:01.264Z,42.39
2019-04-29T14:04:36.449Z,40.91
2019-04-29T14:07:02.536Z,41.81
2019-04-29T14:09:28.380Z,41.96
2019-04-29T14:12:01.699Z,44.41
2019-04-29T14:14:22.622Z,45.72
2019-04-29T14:16:48.869Z,46.75
2019-04-29T14:19:20.495Z,46.63
2019-04-29T14:21:43.643Z,46.22
2019-04-29T14:24:09.658Z,46.18
2019-04-29T14:26:37.063Z,46.41
2019-04-29T14:29:03.585Z,46.38
2019-04-29T14:31:30.295Z,46.07
2019-04-29T14:34:03.991Z,46.20
2019-04-29T14:36:29.850Z,44.77
2019-04-29T14:38:55.710Z,44.39
2019-04-29T14:41:21.587Z,43.71
2019-04-29T14:43:55.104Z,43.30
2019-04-29T14:46:27.938Z,42.84
2019-04-29T14:49:04.300Z,42.61
2019-04-29T14:51:37.053Z,43.20
2019-04-29T14:54:01.453Z,42.81
2019-04-29T14:56:25.069Z,42.67
2019-04-29T14:58:50.930Z,42.35
2019-04-29T15:01:23.614Z,41.95
2019-04-29T15:03:56.900Z,40.10
2019-04-29T15:06:22.851Z,40.08
2019-04-29T15:08:48.794Z,40.77
2019-04-29T15:11:14.759Z,40.37
2019-04-29T15:13:43.129Z,41.26
2019-04-29T15:16:18.956Z,40.32
2019-04-29T15:19:04.273Z,39.68
2019-04-29T15:21:33.764Z,39.96
2019-04-29T15:24:00.153Z,40.22
2019-04-29T15:26:26.909Z,40.06
2019-04-29T15:28:52.770Z,39.78
2019-04-29T15:31:19.826Z,39.64
2019-04-29T15:33:45.683Z,40.59
2019-04-29T15:36:11.528Z,41.16
2019-04-29T15:38:37.397Z,41.44
2019-04-29T15:41:05.490Z,41.57
2019-04-29T15:43:46.562Z,41.08
2019-04-29T15:45:58.783Z,41.44
2019-04-29T15:48:24.647Z,41.23
2019-04-29T15:50:50.496Z,41.59
2019-04-29T15:53:16.411Z,42.17
2019-04-29T15:55:42.315Z,42.74
2019-04-29T15:58:08.501Z,44.15
2019-04-29T16:00:37.632Z,44.68
2019-04-29T16:03:02.493Z,45.62
2019-04-29T16:05:56.041Z,46.73
2019-04-29T16:08:20.821Z,47.00
2019-04-29T16:11:05.349Z,46.90
2019-04-29T16:13:31.268Z,47.19
2019-04-29T16:15:57.114Z,47.57
2019-04-29T16:18:23.019Z,48.12
2019-04-29T16:20:53.780Z,48.21
2019-04-29T16:23:16.752Z,47.86
2019-04-29T16:25:46.149Z,48.15
2019-04-29T16:28:10.369Z,48.53
2019-04-29T16:30:36.233Z,49.10
2019-04-29T16:33:13.332Z,49.22
2019-04-29T16:35:34.734Z,49.01
2019-04-29T16:37:58.153Z,49.49
2019-04-29T16:40:25.894Z,49.01
2019-04-29T16:43:06.008Z,48.81
2019-04-29T16:45:33.778Z,48.83
2019-04-29T16:47:59.642Z,48.61
2019-04-29T16:50:25.608Z,48.84
2019-04-29T16:52:51.492Z,48.27
2019-04-29T16:55:17.385Z,48.26
2019-04-29T16:57:43.276Z,47.78
2019-04-29T17:00:13.846Z,48.00
2019-04-29T17:02:37.702Z,48.00
2019-04-29T17:05:05.364Z,48.48
2019-04-29T17:07:31.244Z,48.28
2019-04-29T17:09:59.015Z,48.37
2019-04-29T17:12:29.349Z,48.54
2019-04-29T17:15:03.960Z,48.57
2019-04-29T17:17:29.141Z,48.18
2019-04-29T17:19:56.032Z,47.65
2019-04-29T17:22:26.016Z,47.76
2019-04-29T17:24:52.486Z,48.65
2019-04-29T17:27:23.503Z,49.14
2019-04-29T17:29:55.382Z,49.47
2019-04-29T17:32:42.940Z,49.41
2019-04-29T17:35:06.457Z,49.43
2019-04-29T17:37:37.809Z,49.25
2019-04-29T17:40:14.720Z,49.29
2019-04-29T17:42:51.960Z,49.36
2019-04-29T17:45:30.833Z,49.63
2019-04-29T17:47:53.455Z,50.42
2019-04-29T17:50:29.978Z,50.88
2019-04-29T17:52:48.961Z,51.36
2019-04-29T17:55:38.721Z,52.03
2019-04-29T17:58:07.156Z,52.80
2019-04-29T18:00:43.714Z,53.81
2019-04-29T18:03:19.429Z,54.71
2019-04-29T18:05:54.947Z,54.67
2019-04-29T18:08:34.285Z,55.09
2019-04-29T18:11:04.740Z,55.49
2019-04-29T18:13:29.695Z,56.02
2019-04-29T18:16:03.437Z,56.23
2019-04-29T18:18:46.214Z,56.64
2019-04-29T18:21:06.666Z,56.81
2019-04-29T18:23:37.493Z,57.03
2019-04-29T18:26:08.060Z,57.35
2019-04-29T18:28:35.832Z,57.33
2019-04-29T18:31:03.074Z,57.34
2019-04-29T18:33:30.442Z,57.12
2019-04-29T18:36:03.763Z,57.16
2019-04-29T18:38:26.269Z,57.41
2019-04-29T18:40:52.121Z,57.28
2019-04-29T18:43:19.180Z,57.58
2019-04-29T18:45:55.551Z,57.66
2019-04-29T18:48:16.971Z,57.52
2019-04-29T18:50:41.418Z,58.06
2019-04-29T18:53:07.343Z,58.83
2019-04-29T18:55:35.352Z,58.95
2019-04-29T18:58:01.261Z,59.23
2019-04-29T19:00:27.330Z,59.87
2019-04-29T19:02:59.698Z,60.10
2019-04-29T19:05:27.785Z,60.31
2019-04-29T19:07:55.166Z,60.69
2019-04-29T19:10:18.970Z,61.29
2019-04-29T19:12:57.021Z,61.63
2019-04-29T19:15:13.088Z,62.14
2019-04-29T19:17:40.086Z,62.15
2019-04-29T19:20:08.725Z,62.69
2019-04-29T19:22:35.898Z,63.16
2019-04-29T19:25:08.665Z,63.11
2019-04-29T19:27:37.121Z,63.84
2019-04-29T19:29:59.881Z,63.92
2019-04-29T19:32:25.737Z,63.77
2019-04-29T19:34:54.939Z,64.39
2019-04-29T19:37:19.390Z,64.87
2019-04-29T19:39:45.263Z,65.07
2019-04-29T19:42:11.137Z,65.29
2019-04-29T19:44:37.035Z,65.29
2019-04-29T19:47:02.976Z,64.89
2019-04-29T19:49:28.826Z,64.95
2019-04-29T19:51:55.522Z,65.16
2019-04-29T19:54:24.649Z,65.37
2019-04-29T19:56:49.305Z,65.37
2019-04-29T19:59:17.415Z,65.58
2019-04-29T20:01:46.648Z,65.78
2019-04-29T20:04:21.462Z,66.29
2019-04-29T20:06:45.493Z,66.63
2019-04-29T20:09:17.048Z,66.28
2019-04-29T20:11:39.645Z,66.53
2019-04-29T20:14:13.185Z,66.69
2019-04-29T20:16:43.206Z,66.71
2019-04-29T20:19:21.068Z,66.56
2019-04-29T20:21:46.012Z,66.60
2019-04-29T20:24:15.498Z,67.09
2019-04-29T20:26:43.761Z,67.29
2019-04-29T20:29:08.806Z,67.18
2019-04-29T20:31:37.110Z,67.27
2019-04-29T20:34:02.758Z,67.64
2019-04-29T20:36:38.534Z,67.78
2019-04-29T20:38:56.722Z,67.55
2019-04-29T20:41:39.381Z,67.28
2019-04-29T20:43:50.645Z,68.28
2019-04-29T20:46:18.003Z,68.32
2019-04-29T20:48:45.603Z,68.36
2019-04-29T20:51:14.150Z,68.99
2019-04-29T20:53:41.558Z,68.60
2019-04-29T20:56:11.998Z,68.43
2019-04-29T20:58:35.996Z,68.55
2019-04-29T21:01:07.113Z,68.70
2019-04-29T21:03:32.460Z,69.38
2019-04-29T21:06:02.528Z,69.73
2019-04-29T21:08:26.299Z,69.84
2019-04-29T21:10:55.456Z,69.84
2019-04-29T21:13:23.308Z,69.73
2019-04-29T21:15:59.422Z,70.24
2019-04-29T21:18:25.118Z,69.90
2019-04-29T21:20:52.568Z,70.00
2019-04-29T21:23:18.412Z,70.28
2019-04-29T21:25:45.808Z,70.37
2019-04-29T21:28:11.860Z,70.34
2019-04-29T21:30:42.517Z,70.49
2019-04-29T21:33:08.229Z,70.43
2019-04-29T21:35:38.074Z,70.88
2019-04-29T21:38:22.204Z,70.51
2019-04-29T21:40:53.529Z,70.99
2019-04-29T21:43:21.536Z,70.54
2019-04-29T21:45:48.485Z,70.56
2019-04-29T21:48:14.525Z,70.43
2019-04-29T21:50:40.477Z,70.23
2019-04-29T21:53:06.333Z,69.92
2019-04-29T21:55:32.223Z,69.72
2019-04-29T21:57:58.908Z,69.91
2019-04-29T22:00:26.074Z,69.96
2019-04-29T22:02:51.933Z,69.87
2019-04-29T22:05:18.647Z,70.16
2019-04-29T22:07:47.391Z,70.08
2019-04-29T22:10:13.058Z,69.98
2019-04-29T22:12:38.919Z,69.81
2019-04-29T22:15:05.911Z,69.84
2019-04-29T22:17:33.120Z,70.06
2019-04-29T22:20:04.211Z,69.84
2019-04-29T22:22:30.674Z,69.46
2019-04-29T22:24:57.587Z,69.24
2019-04-29T22:27:23.497Z,69.27
2019-04-29T22:29:49.349Z,69.13
2019-04-29T22:32:19.246Z,68.58
2019-04-29T22:34:45.082Z,68.75
2019-04-29T22:37:10.913Z,68.41
2019-04-29T22:39:36.765Z,68.99
2019-04-29T22:42:04.635Z,68.86
2019-04-29T22:44:30.508Z,69.15
2019-04-29T22:46:56.357Z,69.06
2019-04-29T22:49:25.209Z,69.07
2019-04-29T22:51:55.823Z,68.60
2019-04-29T22:54:21.993Z,69.09
2019-04-29T22:56:51.916Z,68.20
2019-04-29T22:59:14.765Z,68.32
2019-04-29T23:01:42.323Z,68.09
2019-04-29T23:04:09.552Z,67.64
2019-04-29T23:06:39.800Z,67.66
2019-04-29T23:09:07.708Z,67.82
2019-04-29T23:11:34.778Z,67.54
2019-04-29T23:14:01.710Z,67.73
2019-04-29T23:16:31.612Z,67.57
2019-04-29T23:18:56.653Z,68.00
2019-04-29T23:21:28.059Z,68.15
2019-04-29T23:24:08.355Z,68.20
2019-04-29T23:26:34.842Z,68.43
2019-04-29T23:29:03.632Z,67.94
2019-04-29T23:31:28.369Z,67.92
2019-04-29T23:33:56.417Z,68.25
2019-04-29T23:36:22.392Z,68.11
2019-04-29T23:38:48.249Z,68.85
2019-04-29T23:41:15.315Z,68.13
2019-04-29T23:43:41.303Z,68.61
2019-04-29T23:46:07.169Z,68.53
2019-04-29T23:48:39.405Z,68.94
2019-04-29T23:51:00.869Z,68.91
2019-04-29T23:53:26.737Z,68.92
2019-04-29T23:56:09.349Z,69.06
2019-04-29T23:58:46.814Z,68.81
